createdAt,value
2018-12-30T00:00:25.483Z,80.58
2018-12-30T00:03:00.951Z,79.86
2018-12-30T00:05:32.381Z,80.04
2018-12-30T00:08:07.244Z,79.92
2018-12-30T00:10:42.334Z,79.81
2018-12-30T00:13:16.162Z,79.96
2018-12-30T00:15:48.999Z,79.96
2018-12-30T00:18:30.296Z,79.83
2018-12-30T00:21:08.811Z,79.40
2018-12-30T00:23:43.157Z,79.50
2018-12-30T00:26:09.812Z,79.82
2018-12-30T00:28:47.194Z,79.68
2018-12-30T00:31:30.477Z,79.63
2018-12-30T00:34:06.202Z,79.46
2018-12-30T00:36:41.786Z,79.46
2018-12-30T00:39:13.859Z,79.76
2018-12-30T00:41:45.204Z,79.78
2018-12-30T00:44:17.021Z,79.80
2018-12-30T00:46:48.436Z,79.79
2018-12-30T00:49:19.561Z,80.07
2018-12-30T00:51:51.954Z,80.71
2018-12-30T00:54:23.326Z,80.74
2018-12-30T00:56:57.436Z,80.75
2018-12-30T00:59:29.614Z,80.79
2018-12-30T01:02:01.615Z,81.06
2018-12-30T01:04:33.094Z,81.02
2018-12-30T01:07:05.011Z,81.19
2018-12-30T01:09:36.612Z,81.33
2018-12-30T01:12:08.277Z,81.73
2018-12-30T01:14:42.592Z,82.07
2018-12-30T01:17:14.779Z,81.84
2018-12-30T01:19:51.012Z,82.13
2018-12-30T01:22:23.238Z,81.82
2018-12-30T01:24:54.267Z,81.82
2018-12-30T01:27:26.488Z,82.15
2018-12-30T01:29:57.526Z,81.96
2018-12-30T01:32:28.528Z,82.22
2018-12-30T01:34:59.724Z,82.03
2018-12-30T01:37:30.683Z,81.87
2018-12-30T01:40:01.613Z,81.92
2018-12-30T01:42:36.487Z,81.68
2018-12-30T01:45:07.344Z,81.84
2018-12-30T01:47:38.569Z,82.36
2018-12-30T01:50:11.459Z,82.84
2018-12-30T01:52:42.810Z,82.82
2018-12-30T01:55:14.408Z,82.99
2018-12-30T01:57:46.847Z,83.02
2018-12-30T02:00:18.440Z,82.92
2018-12-30T02:02:49.536Z,82.91
2018-12-30T02:05:21.165Z,82.96
2018-12-30T02:07:53.200Z,82.80
2018-12-30T02:10:24.528Z,82.61
2018-12-30T02:12:58.130Z,82.69
2018-12-30T02:15:29.466Z,82.65
2018-12-30T02:18:01.299Z,82.62
2018-12-30T02:20:34.691Z,82.73
2018-12-30T02:23:05.976Z,82.94
2018-12-30T02:25:36.973Z,82.59
2018-12-30T02:28:07.940Z,82.88
2018-12-30T02:30:38.922Z,83.20
2018-12-30T02:33:09.893Z,83.48
2018-12-30T02:35:41.166Z,83.59
2018-12-30T02:38:13.425Z,83.73
2018-12-30T02:40:47.967Z,83.89
2018-12-30T02:43:19.428Z,83.93
2018-12-30T02:45:50.392Z,83.83
2018-12-30T02:48:21.853Z,83.96
2018-12-30T02:50:53.618Z,84.14
2018-12-30T02:53:25.424Z,84.27
2018-12-30T02:55:56.453Z,84.18
2018-12-30T02:58:27.384Z,84.40
2018-12-30T03:01:01.684Z,84.54
2018-12-30T03:03:33.174Z,84.54
2018-12-30T03:06:05.033Z,84.44
2018-12-30T03:08:36.227Z,84.44
2018-12-30T03:11:07.593Z,84.62
2018-12-30T03:13:38.728Z,84.49
2018-12-30T03:16:09.744Z,84.78
2018-12-30T03:18:40.747Z,84.87
2018-12-30T03:21:12.182Z,84.98
2018-12-30T03:23:44.143Z,85.08
2018-12-30T03:26:15.115Z,85.12
2018-12-30T03:28:46.924Z,85.31
2018-12-30T03:31:19.272Z,85.28
2018-12-30T03:33:51.348Z,85.43
2018-12-30T03:36:24.913Z,85.58
2018-12-30T03:38:58.188Z,85.36
2018-12-30T03:41:31.239Z,85.28
2018-12-30T03:44:03.745Z,85.54
2018-12-30T03:46:37.893Z,85.67
2018-12-30T03:49:09.097Z,85.78
2018-12-30T03:51:40.437Z,85.59
2018-12-30T03:54:12.680Z,85.70
2018-12-30T03:56:45.954Z,85.80
2018-12-30T03:59:17.336Z,85.70
2018-12-30T04:01:48.885Z,85.58
2018-12-30T04:04:22.075Z,85.54
2018-12-30T04:06:54.151Z,85.54
2018-12-30T04:09:26.954Z,85.61
2018-12-30T04:12:01.539Z,85.65
2018-12-30T04:14:33.269Z,85.74
2018-12-30T04:17:04.929Z,85.70
2018-12-30T04:19:36.621Z,85.88
2018-12-30T04:22:16.641Z,86.08
2018-12-30T04:24:42.077Z,86.06
2018-12-30T04:27:13.589Z,85.96
2018-12-30T04:29:45.461Z,86.00
2018-12-30T04:32:16.960Z,86.13
2018-12-30T04:34:48.476Z,86.25
2018-12-30T04:37:20.365Z,86.45
2018-12-30T04:39:51.885Z,86.53
2018-12-30T04:42:23.469Z,86.39
2018-12-30T04:44:55.174Z,86.44
2018-12-30T04:47:26.149Z,86.45
2018-12-30T04:49:57.118Z,86.43
2018-12-30T04:52:28.052Z,86.60
2018-12-30T04:54:59.030Z,86.75
2018-12-30T04:57:29.980Z,86.83
2018-12-30T05:00:00.944Z,87.09
2018-12-30T05:02:31.937Z,87.17
2018-12-30T05:05:02.864Z,87.20
2018-12-30T05:07:33.816Z,87.17
2018-12-30T05:10:05.721Z,86.95
2018-12-30T05:12:36.688Z,86.96
2018-12-30T05:15:07.725Z,86.88
2018-12-30T05:17:38.779Z,86.89
2018-12-30T05:20:09.750Z,86.90
2018-12-30T05:22:40.712Z,87.00
2018-12-30T05:25:11.652Z,86.95
2018-12-30T05:27:42.687Z,87.04
2018-12-30T05:30:13.604Z,87.03
2018-12-30T05:32:44.565Z,87.11
2018-12-30T05:35:15.513Z,87.06
2018-12-30T05:37:46.544Z,87.01
2018-12-30T05:40:17.502Z,87.03
2018-12-30T05:42:48.550Z,87.22
2018-12-30T05:45:19.465Z,87.26
2018-12-30T05:47:50.855Z,87.29
2018-12-30T05:50:22.974Z,87.38
2018-12-30T05:52:54.495Z,87.37
2018-12-30T05:55:25.482Z,87.23
2018-12-30T05:57:56.739Z,87.16
2018-12-30T06:00:27.672Z,87.16
2018-12-30T06:02:59.998Z,87.25
2018-12-30T06:05:30.982Z,87.23
2018-12-30T06:08:01.927Z,87.18
2018-12-30T06:10:32.857Z,87.04
2018-12-30T06:13:03.774Z,86.82
2018-12-30T06:15:34.731Z,86.85
2018-12-30T06:18:05.738Z,86.74
2018-12-30T06:20:36.785Z,86.70
2018-12-30T06:23:08.898Z,86.58
2018-12-30T06:25:39.811Z,86.50
2018-12-30T06:28:10.739Z,86.52
2018-12-30T06:30:41.660Z,86.55
2018-12-30T06:33:12.702Z,86.36
2018-12-30T06:35:43.652Z,86.22
2018-12-30T06:38:14.595Z,86.22
2018-12-30T06:40:45.698Z,86.28
2018-12-30T06:43:16.696Z,86.37
2018-12-30T06:45:47.716Z,86.53
2018-12-30T06:48:18.736Z,86.74
2018-12-30T06:50:49.758Z,86.76
2018-12-30T06:53:20.727Z,86.68
2018-12-30T06:55:51.647Z,86.93
2018-12-30T06:58:22.667Z,86.89
2018-12-30T07:00:53.600Z,86.93
2018-12-30T07:03:26.120Z,87.17
2018-12-30T07:05:57.132Z,87.25
2018-12-30T07:08:28.068Z,87.29
2018-12-30T07:10:59.010Z,87.51
2018-12-30T07:13:29.980Z,87.51
2018-12-30T07:16:00.928Z,87.62
2018-12-30T07:18:31.902Z,87.56
2018-12-30T07:21:02.810Z,87.47
2018-12-30T07:23:33.761Z,87.46
2018-12-30T07:26:04.838Z,87.30
2018-12-30T07:28:35.821Z,87.30
2018-12-30T07:31:07.391Z,87.24
2018-12-30T07:33:38.305Z,87.20
2018-12-30T07:36:09.394Z,87.17
2018-12-30T07:38:40.384Z,87.35
2018-12-30T07:41:12.172Z,87.29
2018-12-30T07:43:43.323Z,87.35
2018-12-30T07:46:15.021Z,87.58
2018-12-30T07:48:48.765Z,87.67
2018-12-30T07:51:23.472Z,87.73
2018-12-30T07:53:54.548Z,87.70
2018-12-30T07:56:25.570Z,87.64
2018-12-30T07:58:57.007Z,87.52
2018-12-30T08:01:27.939Z,87.38
2018-12-30T08:03:58.875Z,87.27
2018-12-30T08:06:29.836Z,87.20
2018-12-30T08:09:00.841Z,87.11
2018-12-30T08:11:32.680Z,88.32
2018-12-30T08:14:03.641Z,87.72
2018-12-30T08:16:34.775Z,87.32
2018-12-30T08:19:05.779Z,86.47
2018-12-30T08:21:36.935Z,86.16
2018-12-30T08:24:09.003Z,85.33
2018-12-30T08:26:40.013Z,84.81
2018-12-30T08:29:11.002Z,84.61
2018-12-30T08:31:41.968Z,84.48
2018-12-30T08:34:12.987Z,84.05
2018-12-30T08:36:44.071Z,83.93
2018-12-30T08:39:15.070Z,83.90
2018-12-30T08:41:46.033Z,83.28
2018-12-30T08:44:17.072Z,82.85
2018-12-30T08:46:48.004Z,83.15
2018-12-30T08:49:19.038Z,82.90
2018-12-30T08:51:52.638Z,83.00
2018-12-30T08:54:23.724Z,83.29
2018-12-30T08:56:54.686Z,83.18
2018-12-30T08:59:25.684Z,83.28
2018-12-30T09:01:56.640Z,83.02
2018-12-30T09:04:27.563Z,83.21
2018-12-30T09:06:58.493Z,83.46
2018-12-30T09:09:29.527Z,84.19
2018-12-30T09:12:00.457Z,84.67
2018-12-30T09:14:31.402Z,85.07
2018-12-30T09:17:02.353Z,85.32
2018-12-30T09:19:33.395Z,85.41
2018-12-30T09:22:04.433Z,85.57
2018-12-30T09:24:35.335Z,85.79
2018-12-30T09:27:06.304Z,86.10
2018-12-30T09:29:37.262Z,86.36
2018-12-30T09:32:08.227Z,86.79
2018-12-30T09:34:39.244Z,86.70
2018-12-30T09:37:10.200Z,86.93
2018-12-30T09:39:41.198Z,87.10
2018-12-30T09:42:12.976Z,87.15
2018-12-30T09:44:45.741Z,87.20
2018-12-30T09:47:17.157Z,87.23
2018-12-30T09:49:48.591Z,87.27
2018-12-30T09:52:20.034Z,87.38
2018-12-30T09:54:51.439Z,87.30
2018-12-30T09:57:23.239Z,87.28
2018-12-30T09:59:54.800Z,87.42
2018-12-30T10:02:25.786Z,87.30
2018-12-30T10:04:57.014Z,87.20
2018-12-30T10:07:28.007Z,87.04
2018-12-30T10:09:59.146Z,86.88
2018-12-30T10:12:33.511Z,86.73
2018-12-30T10:15:09.613Z,86.51
2018-12-30T10:17:37.480Z,86.09
2018-12-30T10:20:10.274Z,86.00
2018-12-30T10:22:41.924Z,85.91
2018-12-30T10:25:15.011Z,85.54
2018-12-30T10:27:47.166Z,85.23
2018-12-30T10:30:18.805Z,85.24
2018-12-30T10:32:50.088Z,84.99
2018-12-30T10:35:21.521Z,84.10
2018-12-30T10:37:53.181Z,83.87
2018-12-30T10:40:24.471Z,83.53
2018-12-30T10:42:55.984Z,82.92
2018-12-30T10:45:27.684Z,83.05
2018-12-30T10:47:59.451Z,82.84
2018-12-30T10:50:30.788Z,82.66
2018-12-30T10:53:02.097Z,81.81
2018-12-30T10:55:33.730Z,81.66
2018-12-30T10:58:07.839Z,81.90
2018-12-30T11:00:38.861Z,82.42
2018-12-30T11:03:11.132Z,82.31
2018-12-30T11:05:42.114Z,81.13
2018-12-30T11:08:13.147Z,80.72
2018-12-30T11:10:44.254Z,80.70
2018-12-30T11:13:15.244Z,79.85
2018-12-30T11:15:46.300Z,79.54
2018-12-30T11:18:17.285Z,79.51
2018-12-30T11:20:48.229Z,79.36
2018-12-30T11:23:19.243Z,79.19
2018-12-30T11:25:50.208Z,79.61
2018-12-30T11:28:21.666Z,80.00
2018-12-30T11:30:52.771Z,80.37
2018-12-30T11:33:23.702Z,80.38
2018-12-30T11:35:54.686Z,81.65
2018-12-30T11:38:27.570Z,81.35
2018-12-30T11:40:58.544Z,80.95
2018-12-30T11:43:29.454Z,81.01
2018-12-30T11:46:00.460Z,80.46
2018-12-30T11:48:31.395Z,81.05
2018-12-30T11:51:02.448Z,80.87
2018-12-30T11:53:33.455Z,81.39
2018-12-30T11:56:04.500Z,80.33
2018-12-30T11:58:35.574Z,80.52
2018-12-30T12:01:06.790Z,81.10
2018-12-30T12:03:37.852Z,81.47
2018-12-30T12:06:08.855Z,81.38
2018-12-30T12:08:39.814Z,81.41
2018-12-30T12:11:10.816Z,81.47
2018-12-30T12:13:41.777Z,81.29
2018-12-30T12:16:12.767Z,82.29
2018-12-30T12:18:43.761Z,81.60
2018-12-30T12:21:16.104Z,81.66
2018-12-30T12:23:47.084Z,81.92
2018-12-30T12:26:18.031Z,81.86
2018-12-30T12:28:49.038Z,81.59
2018-12-30T12:31:19.958Z,81.45
2018-12-30T12:33:50.872Z,82.19
2018-12-30T12:36:22.422Z,81.13
2018-12-30T12:38:53.342Z,80.71
2018-12-30T12:41:24.302Z,80.97
2018-12-30T12:43:55.215Z,80.31
2018-12-30T12:46:26.147Z,80.25
2018-12-30T12:48:57.168Z,80.18
2018-12-30T12:51:28.038Z,79.41
2018-12-30T12:53:58.980Z,80.31
2018-12-30T12:56:29.966Z,80.28
2018-12-30T12:59:00.931Z,80.07
2018-12-30T13:01:31.887Z,80.37
2018-12-30T13:04:02.893Z,79.85
2018-12-30T13:06:33.834Z,78.95
2018-12-30T13:09:06.649Z,79.17
2018-12-30T13:11:37.646Z,78.80
2018-12-30T13:14:08.697Z,78.01
2018-12-30T13:16:39.668Z,77.77
2018-12-30T13:19:10.712Z,77.45
2018-12-30T13:21:41.741Z,76.97
2018-12-30T13:24:13.441Z,77.05
2018-12-30T13:26:44.352Z,76.41
2018-12-30T13:29:16.655Z,75.54
2018-12-30T13:31:47.609Z,75.17
2018-12-30T13:34:19.064Z,75.48
2018-12-30T13:36:50.141Z,75.37
2018-12-30T13:39:21.370Z,75.14
2018-12-30T13:41:52.365Z,75.51
2018-12-30T13:44:23.278Z,75.68
2018-12-30T13:46:54.220Z,75.33
2018-12-30T13:49:25.273Z,75.74
2018-12-30T13:51:56.312Z,75.92
2018-12-30T13:54:30.472Z,75.32
2018-12-30T13:57:01.594Z,75.25
2018-12-30T13:59:32.975Z,75.33
2018-12-30T14:02:04.155Z,75.37
2018-12-30T14:04:35.191Z,75.47
2018-12-30T14:07:06.135Z,75.23
2018-12-30T14:09:37.105Z,74.99
2018-12-30T14:12:08.133Z,74.72
2018-12-30T14:14:39.109Z,75.09
2018-12-30T14:17:10.117Z,75.16
2018-12-30T14:19:41.409Z,75.39
2018-12-30T14:22:18.379Z,75.11
2018-12-30T14:24:55.344Z,75.48
2018-12-30T14:27:21.983Z,74.83
2018-12-30T14:29:52.985Z,75.53
2018-12-30T14:32:23.947Z,76.04
2018-12-30T14:34:55.233Z,76.15
2018-12-30T14:37:26.192Z,76.32
2018-12-30T14:39:57.207Z,76.91
2018-12-30T14:42:28.139Z,76.75
2018-12-30T14:44:59.160Z,77.00
2018-12-30T14:47:30.235Z,77.36
2018-12-30T14:50:01.316Z,77.36
2018-12-30T14:52:32.287Z,77.50
2018-12-30T14:55:04.129Z,77.47
2018-12-30T14:57:37.535Z,77.03
2018-12-30T15:00:09.137Z,77.33
2018-12-30T15:02:40.265Z,77.12
2018-12-30T15:05:11.208Z,77.24
2018-12-30T15:07:42.263Z,77.13
2018-12-30T15:10:13.262Z,76.66
2018-12-30T15:12:44.431Z,76.26
2018-12-30T15:15:15.423Z,76.11
2018-12-30T15:17:46.366Z,75.18
2018-12-30T15:20:17.313Z,74.64
2018-12-30T15:22:48.265Z,75.08
2018-12-30T15:25:19.229Z,75.11
2018-12-30T15:27:50.137Z,74.29
2018-12-30T15:30:21.149Z,74.68
2018-12-30T15:32:52.062Z,73.99
2018-12-30T15:35:23.012Z,74.30
2018-12-30T15:37:53.970Z,74.72
2018-12-30T15:40:24.886Z,75.00
2018-12-30T15:42:55.801Z,75.30
2018-12-30T15:45:26.763Z,75.63
2018-12-30T15:47:57.843Z,75.77
2018-12-30T15:50:28.838Z,76.05
2018-12-30T15:53:01.101Z,75.97
2018-12-30T15:55:32.323Z,76.06
2018-12-30T15:58:03.579Z,75.86
2018-12-30T16:00:34.575Z,76.15
2018-12-30T16:03:05.530Z,76.14
2018-12-30T16:05:36.491Z,76.23
2018-12-30T16:08:07.410Z,76.59
2018-12-30T16:10:38.418Z,77.32
2018-12-30T16:13:09.525Z,77.80
2018-12-30T16:15:40.479Z,78.05
2018-12-30T16:18:11.399Z,77.93
2018-12-30T16:20:42.324Z,77.58
2018-12-30T16:23:13.295Z,77.17
2018-12-30T16:25:44.225Z,77.00
2018-12-30T16:28:15.223Z,76.76
2018-12-30T16:30:46.178Z,76.44
2018-12-30T16:33:17.103Z,76.64
2018-12-30T16:35:48.037Z,77.24
2018-12-30T16:38:18.987Z,77.44
2018-12-30T16:40:49.951Z,77.44
2018-12-30T16:43:21.216Z,76.86
2018-12-30T16:45:52.180Z,76.70
2018-12-30T16:48:23.133Z,77.02
2018-12-30T16:50:54.122Z,76.73
2018-12-30T16:53:25.056Z,77.03
2018-12-30T16:55:56.032Z,76.60
2018-12-30T16:58:27.003Z,77.04
2018-12-30T17:00:57.995Z,76.71
2018-12-30T17:03:29.115Z,76.96
2018-12-30T17:06:00.330Z,79.08
2018-12-30T17:08:31.345Z,76.80
2018-12-30T17:11:02.400Z,76.46
2018-12-30T17:13:33.427Z,76.63
2018-12-30T17:16:04.411Z,77.01
2018-12-30T17:18:35.498Z,77.21
2018-12-30T17:21:06.495Z,76.50
2018-12-30T17:23:37.520Z,76.91
2018-12-30T17:26:08.592Z,76.76
2018-12-30T17:28:39.556Z,76.77
2018-12-30T17:31:10.554Z,76.04
2018-12-30T17:33:41.559Z,76.16
2018-12-30T17:36:12.486Z,76.36
2018-12-30T17:38:43.514Z,76.55
2018-12-30T17:41:14.458Z,77.10
2018-12-30T17:43:48.565Z,77.37
2018-12-30T17:46:23.420Z,77.23
2018-12-30T17:48:54.379Z,77.49
2018-12-30T17:51:31.778Z,77.88
2018-12-30T17:54:02.808Z,77.99
2018-12-30T17:56:34.142Z,78.29
2018-12-30T17:59:05.153Z,78.56
2018-12-30T18:01:36.171Z,78.57
2018-12-30T18:04:14.223Z,78.63
2018-12-30T18:06:45.222Z,78.56
2018-12-30T18:09:17.256Z,78.54
2018-12-30T18:11:50.824Z,78.46
2018-12-30T18:14:21.752Z,78.90
2018-12-30T18:16:56.631Z,78.56
2018-12-30T18:19:30.637Z,77.80
2018-12-30T18:22:02.060Z,77.95
2018-12-30T18:24:33.099Z,79.15
2018-12-30T18:27:07.174Z,78.65
2018-12-30T18:29:53.919Z,79.16
2018-12-30T18:32:22.279Z,79.78
2018-12-30T18:34:53.369Z,80.01
2018-12-30T18:37:24.288Z,80.60
2018-12-30T18:39:55.280Z,79.99
2018-12-30T18:42:26.198Z,80.10
2018-12-30T18:44:57.139Z,79.89
2018-12-30T18:47:28.060Z,79.32
2018-12-30T18:49:58.982Z,79.39
2018-12-30T18:52:29.944Z,79.19
2018-12-30T18:55:00.902Z,78.95
2018-12-30T18:57:31.896Z,79.19
2018-12-30T19:00:02.852Z,79.44
2018-12-30T19:02:33.986Z,78.68
2018-12-30T19:05:05.147Z,78.32
2018-12-30T19:07:36.141Z,78.42
2018-12-30T19:10:07.614Z,78.30
2018-12-30T19:12:38.631Z,77.80
2018-12-30T19:15:09.538Z,77.80
2018-12-30T19:17:40.569Z,77.94
2018-12-30T19:20:12.881Z,77.38
2018-12-30T19:22:43.823Z,77.11
2018-12-30T19:25:14.908Z,77.52
2018-12-30T19:27:45.908Z,77.25
2018-12-30T19:30:16.847Z,78.02
2018-12-30T19:32:47.938Z,77.09
2018-12-30T19:35:24.049Z,76.44
2018-12-30T19:37:56.733Z,76.28
2018-12-30T19:40:27.793Z,76.22
2018-12-30T19:42:58.892Z,76.04
2018-12-30T19:45:30.192Z,75.50
2018-12-30T19:48:01.206Z,75.39
2018-12-30T19:50:32.146Z,74.54
2018-12-30T19:53:03.091Z,74.74
2018-12-30T19:55:34.132Z,74.76
2018-12-30T19:58:05.175Z,74.75
2018-12-30T20:00:36.367Z,74.31
2018-12-30T20:03:07.355Z,74.43
2018-12-30T20:05:38.308Z,74.17
2018-12-30T20:08:09.199Z,74.31
2018-12-30T20:10:58.781Z,74.13
2018-12-30T20:13:31.075Z,73.89
2018-12-30T20:16:16.270Z,74.09
2018-12-30T20:18:51.977Z,74.49
2018-12-30T20:21:23.568Z,74.24
2018-12-30T20:23:54.630Z,74.51
2018-12-30T20:26:29.824Z,74.45
2018-12-30T20:28:58.315Z,74.73
2018-12-30T20:31:29.357Z,74.25
2018-12-30T20:34:00.325Z,74.07
2018-12-30T20:36:31.332Z,74.06
2018-12-30T20:39:02.273Z,74.41
2018-12-30T20:41:34.364Z,74.73
2018-12-30T20:44:05.407Z,74.75
2018-12-30T20:46:36.333Z,74.81
2018-12-30T20:49:07.386Z,74.89
2018-12-30T20:51:38.381Z,75.70
2018-12-30T20:54:09.446Z,75.26
2018-12-30T20:56:40.431Z,75.45
2018-12-30T20:59:11.387Z,75.44
2018-12-30T21:01:42.306Z,75.02
2018-12-30T21:04:32.466Z,75.02
2018-12-30T21:07:05.732Z,74.83
2018-12-30T21:09:42.213Z,74.59
2018-12-30T21:12:20.352Z,74.42
2018-12-30T21:15:01.968Z,74.61
2018-12-30T21:17:39.381Z,74.24
2018-12-30T21:20:10.364Z,74.46
2018-12-30T21:22:41.317Z,74.37
2018-12-30T21:25:12.302Z,74.67
2018-12-30T21:27:43.291Z,74.67
2018-12-30T21:30:14.182Z,74.33
2018-12-30T21:32:54.210Z,73.87
2018-12-30T21:35:25.107Z,74.02
2018-12-30T21:37:56.075Z,74.50
2018-12-30T21:40:26.982Z,74.37
2018-12-30T21:42:57.976Z,74.24
2018-12-30T21:45:28.979Z,74.18
2018-12-30T21:47:59.962Z,74.28
2018-12-30T21:50:30.882Z,74.19
2018-12-30T21:53:01.860Z,74.20
2018-12-30T21:55:32.782Z,74.05
2018-12-30T21:58:03.703Z,74.44
2018-12-30T22:00:34.627Z,74.34
2018-12-30T22:03:05.536Z,74.28
2018-12-30T22:05:36.457Z,74.17
2018-12-30T22:08:07.395Z,74.51
2018-12-30T22:10:38.316Z,74.57
2018-12-30T22:13:13.932Z,74.32
2018-12-30T22:15:47.733Z,74.57
2018-12-30T22:18:24.491Z,75.25
2018-12-30T22:20:55.520Z,75.47
2018-12-30T22:23:26.438Z,75.22
2018-12-30T22:26:01.025Z,75.67
2018-12-30T22:28:33.579Z,75.65
2018-12-30T22:31:04.483Z,75.43
2018-12-30T22:33:35.407Z,75.52
2018-12-30T22:36:06.368Z,75.65
2018-12-30T22:38:37.261Z,75.75
2018-12-30T22:41:08.221Z,75.85
2018-12-30T22:43:39.168Z,75.29
2018-12-30T22:46:10.096Z,75.11
2018-12-30T22:48:41.047Z,75.22
2018-12-30T22:51:11.989Z,75.14
2018-12-30T22:53:42.970Z,75.31
2018-12-30T22:56:13.911Z,74.79
2018-12-30T22:58:44.847Z,75.14
2018-12-30T23:01:22.294Z,75.32
2018-12-30T23:03:53.218Z,75.38
2018-12-30T23:06:24.194Z,75.29
2018-12-30T23:08:56.244Z,75.42
2018-12-30T23:11:27.199Z,75.01
2018-12-30T23:13:58.172Z,75.38
2018-12-30T23:16:29.057Z,75.65
2018-12-30T23:18:59.986Z,75.42
2018-12-30T23:21:30.882Z,75.86
2018-12-30T23:24:01.838Z,75.95
2018-12-30T23:26:32.845Z,76.14
2018-12-30T23:29:03.811Z,76.39
2018-12-30T23:31:34.836Z,76.47
2018-12-30T23:34:05.855Z,76.57
2018-12-30T23:36:36.850Z,76.39
2018-12-30T23:39:08.758Z,76.66
2018-12-30T23:41:39.704Z,76.86
2018-12-30T23:44:10.620Z,77.05
2018-12-30T23:46:41.532Z,77.27
2018-12-30T23:49:12.461Z,77.32
2018-12-30T23:51:43.410Z,77.42
2018-12-30T23:54:14.346Z,77.65
2018-12-30T23:56:45.286Z,77.83
2018-12-30T23:59:16.228Z,78.02
